createdAt,value
2018-11-23T00:00:33.374Z,1.60
2018-11-23T00:03:02.733Z,1.70
2018-11-23T00:05:31.917Z,1.70
2018-11-23T00:08:01.157Z,1.70
2018-11-23T00:10:31.638Z,1.80
2018-11-23T00:13:00.768Z,1.80
2018-11-23T00:15:29.943Z,1.70
2018-11-23T00:18:00.673Z,1.70
2018-11-23T00:20:32.001Z,1.70
2018-11-23T00:23:02.177Z,1.70
2018-11-23T00:25:31.301Z,1.70
2018-11-23T00:28:00.420Z,1.70
2018-11-23T00:30:30.497Z,1.70
2018-11-23T00:32:59.622Z,1.80
2018-11-23T00:35:30.059Z,1.70
2018-11-23T00:37:59.749Z,1.70
2018-11-23T00:40:30.225Z,1.70
2018-11-23T00:42:59.772Z,1.60
2018-11-23T00:45:28.943Z,1.70
2018-11-23T00:47:58.898Z,1.70
2018-11-23T00:50:28.560Z,1.60
2018-11-23T00:52:58.856Z,1.60
2018-11-23T00:55:28.670Z,1.50
2018-11-23T00:57:57.858Z,1.40
2018-11-23T01:00:29.223Z,1.50
2018-11-23T01:02:59.415Z,1.50
2018-11-23T01:05:28.671Z,1.50
2018-11-23T01:07:57.843Z,1.50
2018-11-23T01:10:28.038Z,1.50
2018-11-23T01:12:58.039Z,1.50
2018-11-23T01:15:27.238Z,1.50
2018-11-23T01:17:56.395Z,1.50
2018-11-23T01:20:26.685Z,1.50
2018-11-23T01:22:56.615Z,1.50
2018-11-23T01:25:26.706Z,1.50
2018-11-23T01:27:56.300Z,1.50
2018-11-23T01:30:26.873Z,1.50
2018-11-23T01:32:56.162Z,1.50
2018-11-23T01:35:25.718Z,1.50
2018-11-23T01:37:54.918Z,1.40
2018-11-23T01:40:25.468Z,1.40
2018-11-23T01:42:55.080Z,1.30
2018-11-23T01:45:24.229Z,1.30
2018-11-23T01:47:53.504Z,1.30
2018-11-23T01:50:24.261Z,1.30
2018-11-23T01:52:53.716Z,1.40
2018-11-23T01:55:23.594Z,1.40
2018-11-23T01:57:53.005Z,1.40
2018-11-23T02:00:26.435Z,1.30
2018-11-23T02:02:56.158Z,1.30
2018-11-23T02:05:25.637Z,1.30
2018-11-23T02:07:55.350Z,1.30
2018-11-23T02:10:28.904Z,1.20
2018-11-23T02:12:58.084Z,1.20
2018-11-23T02:15:27.295Z,1.20
2018-11-23T02:17:56.480Z,1.20
2018-11-23T02:20:25.641Z,1.20
2018-11-23T02:22:54.870Z,1.20
2018-11-23T02:25:24.165Z,1.20
2018-11-23T02:27:53.370Z,1.20
2018-11-23T02:30:25.400Z,1.20
2018-11-23T02:32:54.713Z,1.20
2018-11-23T02:35:23.968Z,1.20
2018-11-23T02:37:53.213Z,1.20
2018-11-23T02:40:22.451Z,1.30
2018-11-23T02:42:51.697Z,1.30
2018-11-23T02:45:22.321Z,1.30
2018-11-23T02:47:52.508Z,1.30
2018-11-23T02:50:21.698Z,1.30
2018-11-23T02:52:51.378Z,1.20
2018-11-23T02:55:21.009Z,1.30
2018-11-23T02:57:50.188Z,1.30
2018-11-23T03:00:21.918Z,1.30
2018-11-23T03:02:51.163Z,1.20
2018-11-23T03:05:21.620Z,1.20
2018-11-23T03:07:50.799Z,1.20
2018-11-23T03:10:19.984Z,1.20
2018-11-23T03:12:49.681Z,1.20
2018-11-23T03:15:19.871Z,1.10
2018-11-23T03:17:49.471Z,0.90
2018-11-23T03:20:20.914Z,0.80
2018-11-23T03:22:50.078Z,0.80
2018-11-23T03:25:19.251Z,0.70
2018-11-23T03:27:48.447Z,0.70
2018-11-23T03:30:18.913Z,0.70
2018-11-23T03:32:48.959Z,0.60
2018-11-23T03:35:18.649Z,0.60
2018-11-23T03:37:48.077Z,0.60
2018-11-23T03:40:17.262Z,0.70
2018-11-23T03:42:46.448Z,0.70
2018-11-23T03:45:16.162Z,0.60
2018-11-23T03:47:46.019Z,0.60
2018-11-23T03:50:15.992Z,0.70
2018-11-23T03:52:45.411Z,0.70
2018-11-23T03:55:14.608Z,0.80
2018-11-23T03:57:43.848Z,0.90
2018-11-23T04:00:17.234Z,0.90
2018-11-23T04:02:46.415Z,0.80
2018-11-23T04:05:15.874Z,0.80
2018-11-23T04:07:45.060Z,0.80
2018-11-23T04:10:15.083Z,0.70
2018-11-23T04:12:44.724Z,0.60
2018-11-23T04:15:14.485Z,0.80
2018-11-23T04:17:43.784Z,0.80
2018-11-23T04:20:14.229Z,0.80
2018-11-23T04:22:43.828Z,0.80
2018-11-23T04:25:13.553Z,0.90
2018-11-23T04:27:43.297Z,0.90
2018-11-23T04:30:15.013Z,0.80
2018-11-23T04:32:44.655Z,0.80
2018-11-23T04:35:14.949Z,0.70
2018-11-23T04:37:44.851Z,0.70
2018-11-23T04:40:14.869Z,0.60
2018-11-23T04:42:44.375Z,0.50
2018-11-23T04:45:14.004Z,0.60
2018-11-23T04:47:43.227Z,0.60
2018-11-23T04:50:14.026Z,0.60
2018-11-23T04:52:43.546Z,0.50
2018-11-23T04:55:12.696Z,0.50
2018-11-23T04:57:42.476Z,0.50
2018-11-23T05:00:13.916Z,0.60
2018-11-23T05:02:43.596Z,0.70
2018-11-23T05:05:13.287Z,0.70
2018-11-23T05:07:43.472Z,0.70
2018-11-23T05:10:13.881Z,0.70
2018-11-23T05:12:43.048Z,0.70
2018-11-23T05:15:13.416Z,0.70
2018-11-23T05:17:42.915Z,0.70
2018-11-23T05:20:13.229Z,0.80
2018-11-23T05:22:42.777Z,0.90
2018-11-23T05:25:12.953Z,0.90
2018-11-23T05:27:42.119Z,0.90
2018-11-23T05:30:13.590Z,0.80
2018-11-23T05:32:42.765Z,0.70
2018-11-23T05:35:13.385Z,0.70
2018-11-23T05:37:42.573Z,0.70
2018-11-23T05:40:13.832Z,0.80
2018-11-23T05:42:43.021Z,0.80
2018-11-23T05:45:14.728Z,0.80
2018-11-23T05:47:44.162Z,0.80
2018-11-23T05:50:15.327Z,0.80
2018-11-23T05:52:45.018Z,0.90
2018-11-23T05:55:14.204Z,0.90
2018-11-23T05:57:43.723Z,0.80
2018-11-23T06:00:18.898Z,0.70
2018-11-23T06:02:48.106Z,0.60
2018-11-23T06:05:17.296Z,0.60
2018-11-23T06:07:46.451Z,0.60
2018-11-23T06:10:16.984Z,0.60
2018-11-23T06:12:46.145Z,0.60
2018-11-23T06:15:18.610Z,0.70
2018-11-23T06:17:48.212Z,0.60
2018-11-23T06:20:20.415Z,0.60
2018-11-23T06:22:50.821Z,0.70
2018-11-23T06:25:34.788Z,0.70
2018-11-23T06:28:04.006Z,0.70
2018-11-23T06:30:33.186Z,0.60
2018-11-23T06:33:14.977Z,0.50
2018-11-23T06:35:44.138Z,0.60
2018-11-23T06:38:13.274Z,0.60
2018-11-23T06:40:42.525Z,0.60
2018-11-23T06:43:11.656Z,0.70
2018-11-23T06:45:42.754Z,0.80
2018-11-23T06:48:12.178Z,0.80
2018-11-23T06:50:41.691Z,0.70
2018-11-23T06:53:10.873Z,0.70
2018-11-23T06:55:40.044Z,0.60
2018-11-23T06:58:09.281Z,0.70
2018-11-23T07:00:40.701Z,0.70
2018-11-23T07:03:10.312Z,0.70
2018-11-23T07:05:39.554Z,0.80
2018-11-23T07:08:09.741Z,0.90
2018-11-23T07:10:38.911Z,0.90
2018-11-23T07:13:08.562Z,1.00
2018-11-23T07:15:39.007Z,1.00
2018-11-23T07:18:08.172Z,1.00
2018-11-23T07:20:37.360Z,1.00
2018-11-23T07:23:06.620Z,1.10
2018-11-23T07:25:35.935Z,1.10
2018-11-23T07:28:05.492Z,1.00
2018-11-23T07:30:36.195Z,1.10
2018-11-23T07:33:05.826Z,1.10
2018-11-23T07:35:35.945Z,1.20
2018-11-23T07:38:05.290Z,1.30
2018-11-23T07:40:47.011Z,1.40
2018-11-23T07:43:16.191Z,1.30
2018-11-23T07:45:45.401Z,1.30
2018-11-23T07:48:14.976Z,1.30
2018-11-23T07:50:44.330Z,1.30
2018-11-23T07:53:13.512Z,1.30
2018-11-23T07:55:42.747Z,1.30
2018-11-23T07:58:12.017Z,1.40
2018-11-23T08:00:41.257Z,1.50
2018-11-23T08:03:10.484Z,1.50
2018-11-23T08:05:39.701Z,1.60
2018-11-23T08:08:08.930Z,1.60
2018-11-23T08:10:37.359Z,1.60
2018-11-23T08:13:07.589Z,1.70
2018-11-23T08:15:40.182Z,1.80
2018-11-23T08:18:09.776Z,1.90
2018-11-23T08:20:39.545Z,1.90
2018-11-23T08:23:08.741Z,2.00
2018-11-23T08:25:37.957Z,2.10
2018-11-23T08:28:07.129Z,2.10
2018-11-23T08:30:36.590Z,2.10
2018-11-23T08:33:05.840Z,2.20
2018-11-23T08:35:35.042Z,2.20
2018-11-23T08:38:04.192Z,2.30
2018-11-23T08:40:33.908Z,2.30
2018-11-23T08:43:03.048Z,2.40
2018-11-23T08:45:32.226Z,2.40
2018-11-23T08:48:01.389Z,2.50
2018-11-23T08:50:31.238Z,2.50
2018-11-23T08:53:00.953Z,2.60
2018-11-23T08:55:30.721Z,2.70
2018-11-23T08:57:59.846Z,2.70
2018-11-23T09:00:29.649Z,2.80
2018-11-23T09:03:00.812Z,2.90
2018-11-23T09:05:30.541Z,2.90
2018-11-23T09:08:00.257Z,3.00
2018-11-23T09:10:31.068Z,2.90
2018-11-23T09:13:02.448Z,3.00
2018-11-23T09:15:32.536Z,3.10
2018-11-23T09:18:02.245Z,3.20
2018-11-23T09:20:31.441Z,3.30
2018-11-23T09:23:01.157Z,3.30
2018-11-23T09:25:30.314Z,3.30
2018-11-23T09:28:00.037Z,3.30
2018-11-23T09:30:29.752Z,3.40
2018-11-23T09:32:59.480Z,3.40
2018-11-23T09:35:29.581Z,3.40
2018-11-23T09:37:59.360Z,3.50
2018-11-23T09:40:30.116Z,3.50
2018-11-23T09:42:59.897Z,3.50
2018-11-23T09:45:31.167Z,3.50
2018-11-23T09:48:03.057Z,3.60
2018-11-23T09:50:32.826Z,3.60
2018-11-23T09:53:03.773Z,3.70
2018-11-23T09:55:35.032Z,3.80
2018-11-23T09:58:04.876Z,3.80
2018-11-23T10:00:35.880Z,3.80
2018-11-23T10:03:06.525Z,3.80
2018-11-23T10:05:36.370Z,3.80
2018-11-23T10:08:07.284Z,3.90
2018-11-23T10:10:37.109Z,3.80
2018-11-23T10:13:06.893Z,3.80
2018-11-23T10:15:36.648Z,3.80
2018-11-23T10:18:06.432Z,3.80
2018-11-23T10:20:36.436Z,3.80
2018-11-23T10:23:06.291Z,3.80
2018-11-23T10:25:36.479Z,3.70
2018-11-23T10:28:06.315Z,3.70
2018-11-23T10:30:37.195Z,3.70
2018-11-23T10:33:07.668Z,3.70
2018-11-23T10:35:37.464Z,3.80
2018-11-23T10:38:07.578Z,3.90
2018-11-23T10:40:38.906Z,3.90
2018-11-23T10:43:09.145Z,4.00
2018-11-23T10:45:39.140Z,4.10
2018-11-23T10:48:09.392Z,4.20
2018-11-23T10:50:40.634Z,4.20
2018-11-23T10:53:14.023Z,4.10
2018-11-23T10:55:43.765Z,4.20
2018-11-23T10:58:13.533Z,4.30
2018-11-23T11:00:48.575Z,4.40
2018-11-23T11:03:33.961Z,4.30
2018-11-23T11:06:10.725Z,4.40
2018-11-23T11:08:40.958Z,4.40
2018-11-23T11:11:13.756Z,4.40
2018-11-23T11:13:41.057Z,4.50
2018-11-23T11:16:10.796Z,4.40
2018-11-23T11:18:41.598Z,4.40
2018-11-23T11:21:11.364Z,4.40
2018-11-23T11:23:47.804Z,4.40
2018-11-23T11:26:17.524Z,4.40
2018-11-23T11:28:47.268Z,4.50
2018-11-23T11:31:16.985Z,4.50
2018-11-23T11:33:46.720Z,4.50
2018-11-23T11:36:16.428Z,4.50
2018-11-23T11:38:46.316Z,4.60
2018-11-23T11:41:15.892Z,4.60
2018-11-23T11:43:45.625Z,4.60
2018-11-23T11:46:15.344Z,4.60
2018-11-23T11:48:45.096Z,4.70
2018-11-23T11:51:17.658Z,4.70
2018-11-23T11:53:45.326Z,4.70
2018-11-23T11:56:15.053Z,4.70
2018-11-23T11:58:44.772Z,4.70
2018-11-23T12:01:14.487Z,4.70
2018-11-23T12:03:44.212Z,4.70
2018-11-23T12:06:13.924Z,4.80
2018-11-23T12:08:43.697Z,4.80
2018-11-23T12:11:13.404Z,4.70
2018-11-23T12:13:43.152Z,4.70
2018-11-23T12:16:12.872Z,4.70
2018-11-23T12:18:42.687Z,4.70
2018-11-23T12:21:12.436Z,4.70
2018-11-23T12:23:42.181Z,4.70
2018-11-23T12:26:12.004Z,4.70
2018-11-23T12:28:41.824Z,4.70
2018-11-23T12:31:11.536Z,4.70
2018-11-23T12:33:41.243Z,4.70
2018-11-23T12:36:10.956Z,4.60
2018-11-23T12:38:43.129Z,4.70
2018-11-23T12:41:10.803Z,4.70
2018-11-23T12:43:40.515Z,4.60
2018-11-23T12:46:10.324Z,4.60
2018-11-23T12:48:40.389Z,4.60
2018-11-23T12:51:10.072Z,4.60
2018-11-23T12:53:39.868Z,4.60
2018-11-23T12:56:09.555Z,4.60
2018-11-23T12:58:40.336Z,4.50
2018-11-23T13:01:10.045Z,4.50
2018-11-23T13:03:39.736Z,4.50
2018-11-23T13:06:09.435Z,4.40
2018-11-23T13:08:39.160Z,4.40
2018-11-23T13:11:08.893Z,4.40
2018-11-23T13:13:38.575Z,4.40
2018-11-23T13:16:08.328Z,4.40
2018-11-23T13:18:38.028Z,4.40
2018-11-23T13:21:07.730Z,4.40
2018-11-23T13:23:37.416Z,4.30
2018-11-23T13:26:07.287Z,4.30
2018-11-23T13:28:36.969Z,4.20
2018-11-23T13:31:06.673Z,4.20
2018-11-23T13:33:36.399Z,4.20
2018-11-23T13:36:06.765Z,4.10
2018-11-23T13:38:36.535Z,4.10
2018-11-23T13:41:06.692Z,4.20
2018-11-23T13:43:36.580Z,4.20
2018-11-23T13:46:06.647Z,4.20
2018-11-23T13:48:36.292Z,4.10
2018-11-23T13:51:06.113Z,4.10
2018-11-23T13:53:35.752Z,4.10
2018-11-23T13:56:06.400Z,4.10
2018-11-23T13:58:36.055Z,4.10
2018-11-23T14:01:05.848Z,4.10
2018-11-23T14:03:35.493Z,4.00
2018-11-23T14:06:05.641Z,4.00
2018-11-23T14:08:35.385Z,4.00
2018-11-23T14:11:05.096Z,4.00
2018-11-23T14:13:34.727Z,4.00
2018-11-23T14:16:04.788Z,4.00
2018-11-23T14:18:34.457Z,4.00
2018-11-23T14:21:04.160Z,4.00
2018-11-23T14:23:33.872Z,4.00
2018-11-23T14:26:03.597Z,4.00
2018-11-23T14:28:33.256Z,4.00
2018-11-23T14:31:02.941Z,4.00
2018-11-23T14:33:32.597Z,3.90
2018-11-23T14:36:02.320Z,3.90
2018-11-23T14:38:31.968Z,3.90
2018-11-23T14:41:01.647Z,3.90
2018-11-23T14:43:31.507Z,3.90
2018-11-23T14:46:01.169Z,3.80
2018-11-23T14:48:30.817Z,3.80
2018-11-23T14:51:00.600Z,3.80
2018-11-23T14:53:30.384Z,3.80
2018-11-23T14:56:00.072Z,3.80
2018-11-23T14:58:35.476Z,3.80
2018-11-23T15:01:05.834Z,3.80
2018-11-23T15:03:35.509Z,3.70
2018-11-23T15:06:05.251Z,3.70
2018-11-23T15:08:34.921Z,3.80
2018-11-23T15:11:05.244Z,3.80
2018-11-23T15:13:34.920Z,3.80
2018-11-23T15:16:05.264Z,3.70
2018-11-23T15:18:34.947Z,3.70
2018-11-23T15:21:05.440Z,3.70
2018-11-23T15:23:35.303Z,3.70
2018-11-23T15:26:05.516Z,3.70
2018-11-23T15:28:35.199Z,3.60
2018-11-23T15:31:05.306Z,3.60
2018-11-23T15:33:35.341Z,3.60
2018-11-23T15:36:05.578Z,3.50
2018-11-23T15:38:35.657Z,3.50
2018-11-23T15:41:05.371Z,3.60
2018-11-23T15:43:35.469Z,3.50
2018-11-23T15:46:06.125Z,3.40
2018-11-23T15:48:36.041Z,3.40
2018-11-23T15:51:08.977Z,3.50
2018-11-23T15:53:38.657Z,3.50
2018-11-23T15:56:08.449Z,3.50
2018-11-23T15:58:38.487Z,3.50
2018-11-23T16:01:08.544Z,3.50
2018-11-23T16:03:38.598Z,3.50
2018-11-23T16:06:08.577Z,3.50
2018-11-23T16:08:38.256Z,3.50
2018-11-23T16:11:08.107Z,3.60
2018-11-23T16:13:38.157Z,3.60
2018-11-23T16:16:07.880Z,3.60
2018-11-23T16:18:37.292Z,3.60
2018-11-23T16:21:07.103Z,3.60
2018-11-23T16:23:36.823Z,3.60
2018-11-23T16:26:07.019Z,3.60
2018-11-23T16:28:36.913Z,3.60
2018-11-23T16:31:06.583Z,3.60
2018-11-23T16:33:37.265Z,3.50
2018-11-23T16:36:07.025Z,3.50
2018-11-23T16:38:37.046Z,3.50
2018-11-23T16:41:06.798Z,3.50
2018-11-23T16:43:36.651Z,3.50
2018-11-23T16:46:06.448Z,3.50
2018-11-23T16:48:36.614Z,3.50
2018-11-23T16:51:07.856Z,3.50
2018-11-23T16:53:37.681Z,3.50
2018-11-23T16:56:07.792Z,3.50
2018-11-23T16:58:38.164Z,3.60
2018-11-23T17:01:08.289Z,3.50
2018-11-23T17:03:38.429Z,3.50
2018-11-23T17:06:07.589Z,3.50
2018-11-23T17:08:39.857Z,3.50
2018-11-23T17:11:07.104Z,3.50
2018-11-23T17:13:36.813Z,3.60
2018-11-23T17:16:07.511Z,3.60
2018-11-23T17:18:37.731Z,3.50
2018-11-23T17:21:07.548Z,3.50
2018-11-23T17:23:37.325Z,3.50
2018-11-23T17:26:07.024Z,3.50
2018-11-23T17:28:36.771Z,3.60
2018-11-23T17:31:06.569Z,3.60
2018-11-23T17:33:36.652Z,3.60
2018-11-23T17:36:06.416Z,3.60
2018-11-23T17:38:37.836Z,3.60
2018-11-23T17:41:06.283Z,3.60
2018-11-23T17:43:36.222Z,3.60
2018-11-23T17:46:06.300Z,3.60
2018-11-23T17:48:36.045Z,3.60
2018-11-23T17:51:05.789Z,3.60
2018-11-23T17:53:35.560Z,3.60
2018-11-23T17:56:05.844Z,3.70
2018-11-23T17:58:35.558Z,3.60
2018-11-23T18:01:06.281Z,3.60
2018-11-23T18:03:36.468Z,3.60
2018-11-23T18:06:06.633Z,3.60
2018-11-23T18:08:38.978Z,3.60
2018-11-23T18:11:06.540Z,3.60
2018-11-23T18:13:36.472Z,3.60
2018-11-23T18:16:06.243Z,3.70
2018-11-23T18:18:35.996Z,3.70
2018-11-23T18:21:06.168Z,3.60
2018-11-23T18:23:35.578Z,3.60
2018-11-23T18:26:05.837Z,3.60
2018-11-23T18:28:36.274Z,3.60
2018-11-23T18:31:06.369Z,3.70
2018-11-23T18:33:36.203Z,3.60
2018-11-23T18:36:05.497Z,3.70
2018-11-23T18:38:35.600Z,3.70
2018-11-23T18:41:05.970Z,3.70
2018-11-23T18:43:35.809Z,3.60
2018-11-23T18:46:06.130Z,3.60
2018-11-23T18:48:35.864Z,3.70
2018-11-23T18:51:05.604Z,3.70
2018-11-23T18:53:35.666Z,3.60
2018-11-23T18:56:05.104Z,3.60
2018-11-23T18:58:34.849Z,3.50
2018-11-23T19:01:04.787Z,3.50
2018-11-23T19:03:34.534Z,3.50
2018-11-23T19:06:04.352Z,3.50
2018-11-23T19:08:34.129Z,3.50
2018-11-23T19:11:04.519Z,3.50
2018-11-23T19:13:35.327Z,3.40
2018-11-23T19:16:04.206Z,3.50
2018-11-23T19:18:33.999Z,3.50
2018-11-23T19:21:04.704Z,3.50
2018-11-23T19:23:34.776Z,3.50
2018-11-23T19:26:04.689Z,3.50
2018-11-23T19:28:34.557Z,3.50
2018-11-23T19:31:04.336Z,3.50
2018-11-23T19:33:34.127Z,3.50
2018-11-23T19:36:03.982Z,3.50
2018-11-23T19:38:33.811Z,3.50
2018-11-23T19:41:03.580Z,3.50
2018-11-23T19:43:33.474Z,3.40
2018-11-23T19:46:03.366Z,3.40
2018-11-23T19:48:33.272Z,3.40
2018-11-23T19:51:03.093Z,3.40
2018-11-23T19:53:32.889Z,3.40
2018-11-23T19:56:02.917Z,3.50
2018-11-23T19:58:33.106Z,3.50
2018-11-23T20:01:02.329Z,3.50
2018-11-23T20:03:32.059Z,3.50
2018-11-23T20:06:01.793Z,3.50
2018-11-23T20:08:31.560Z,3.50
2018-11-23T20:11:01.324Z,3.50
2018-11-23T20:13:30.867Z,3.50
2018-11-23T20:16:00.852Z,3.60
2018-11-23T20:18:30.615Z,3.60
2018-11-23T20:21:00.406Z,3.60
2018-11-23T20:23:30.160Z,3.60
2018-11-23T20:26:00.509Z,3.60
2018-11-23T20:28:30.698Z,3.60
2018-11-23T20:31:00.508Z,3.60
2018-11-23T20:33:30.271Z,3.60
2018-11-23T20:36:00.051Z,3.60
2018-11-23T20:38:30.373Z,3.60
2018-11-23T20:41:00.136Z,3.60
2018-11-23T20:43:30.006Z,3.70
2018-11-23T20:45:59.755Z,3.70
2018-11-23T20:48:29.532Z,3.60
2018-11-23T20:50:59.248Z,3.60
2018-11-23T20:53:29.077Z,3.70
2018-11-23T20:55:58.803Z,3.70
2018-11-23T20:58:28.640Z,3.60
2018-11-23T21:00:58.644Z,3.60
2018-11-23T21:03:27.844Z,3.60
2018-11-23T21:05:59.512Z,3.60
2018-11-23T21:08:29.888Z,3.60
2018-11-23T21:10:59.696Z,3.60
2018-11-23T21:13:29.611Z,3.60
2018-11-23T21:15:59.701Z,3.60
2018-11-23T21:18:31.948Z,3.70
2018-11-23T21:21:01.670Z,3.60
2018-11-23T21:23:31.400Z,3.60
2018-11-23T21:26:01.858Z,3.60
2018-11-23T21:28:31.896Z,3.60
2018-11-23T21:31:02.759Z,3.70
2018-11-23T21:33:32.873Z,3.60
2018-11-23T21:36:02.873Z,3.70
2018-11-23T21:38:32.662Z,3.70
2018-11-23T21:41:02.418Z,3.70
2018-11-23T21:43:32.113Z,3.70
2018-11-23T21:46:01.816Z,3.60
2018-11-23T21:48:31.540Z,3.70
2018-11-23T21:51:01.248Z,3.70
2018-11-23T21:53:31.782Z,3.80
2018-11-23T21:56:01.477Z,3.70
2018-11-23T21:58:31.151Z,3.70
2018-11-23T22:01:00.888Z,3.70
2018-11-23T22:03:30.567Z,3.80
2018-11-23T22:06:00.277Z,3.70
2018-11-23T22:08:29.981Z,3.70
2018-11-23T22:10:59.660Z,3.70
2018-11-23T22:13:29.340Z,3.70
2018-11-23T22:15:59.027Z,3.80
2018-11-23T22:18:28.700Z,3.80
2018-11-23T22:20:58.408Z,3.80
2018-11-23T22:23:28.101Z,3.80
2018-11-23T22:25:57.867Z,3.70
2018-11-23T22:28:27.552Z,3.70
2018-11-23T22:30:57.261Z,3.80
2018-11-23T22:33:26.953Z,3.70
2018-11-23T22:35:56.743Z,3.70
2018-11-23T22:38:26.457Z,3.80
2018-11-23T22:40:56.191Z,3.70
2018-11-23T22:43:25.925Z,3.80
2018-11-23T22:45:55.651Z,3.80
2018-11-23T22:48:25.385Z,3.80
2018-11-23T22:50:55.107Z,3.80
2018-11-23T22:53:24.868Z,3.70
2018-11-23T22:55:54.606Z,3.70
2018-11-23T22:58:24.360Z,3.70
2018-11-23T23:00:59.528Z,3.60
2018-11-23T23:03:29.264Z,3.60
2018-11-23T23:06:00.084Z,3.50
2018-11-23T23:08:28.766Z,3.60
2018-11-23T23:10:58.524Z,3.60
2018-11-23T23:13:28.244Z,3.60
2018-11-23T23:15:57.993Z,3.60
2018-11-23T23:18:27.700Z,3.60
2018-11-23T23:20:57.455Z,3.60
2018-11-23T23:23:27.209Z,3.60
2018-11-23T23:25:57.687Z,3.60
2018-11-23T23:28:27.416Z,3.50
2018-11-23T23:30:58.111Z,3.60
2018-11-23T23:33:27.840Z,3.60
2018-11-23T23:35:57.996Z,3.70
2018-11-23T23:38:28.585Z,3.70
2018-11-23T23:40:59.532Z,3.60
2018-11-23T23:43:29.817Z,3.60
2018-11-23T23:46:00.316Z,3.60
2018-11-23T23:48:30.020Z,3.60
2018-11-23T23:51:00.109Z,3.60
2018-11-23T23:53:29.818Z,3.60
2018-11-23T23:55:59.584Z,3.70
2018-11-23T23:58:29.340Z,3.70
